Terminal Aerodrome Forecast
Issued by NWS Des Moines, IA

Home | Current Version | Previous Version | Text Only | Print | Product List | Glossary On
Versions: 1 2 3 4 5 6 7 8 9 10 11 12 13 14 15 16 17
000
FTUS43 KDMX 212338
TAFDSM
TAF
KDSM 212338Z 2200/2224 17010G18KT P6SM FEW200
     FM220300 16009G15KT P6SM FEW200 WS020/18040KT
     FM221200 17011KT P6SM FEW230
     FM221700 18018G26KT P6SM FEW080=

USA.gov is the U.S. government's official web portal to all federal, state and local government web resources and services.